createdAt,value
2023-01-20T00:00:43.294Z,99144.50
2023-01-20T00:05:09.491Z,99142.81
2023-01-20T00:09:16.494Z,99154.84
2023-01-20T00:13:19.869Z,99159.19
2023-01-20T00:17:26.430Z,99160.94
2023-01-20T00:21:36.871Z,99159.22
2023-01-20T00:25:39.943Z,99160.06
2023-01-20T00:29:44.504Z,99157.59
2023-01-20T00:33:48.495Z,99171.38
2023-01-20T00:37:52.407Z,99175.78
2023-01-20T00:41:55.674Z,99187.78
2023-01-20T00:45:58.803Z,99190.38
2023-01-20T00:50:01.784Z,99196.44
2023-01-20T00:54:06.274Z,99198.25
2023-01-20T00:58:09.620Z,99215.59
2023-01-20T01:02:12.662Z,99215.59
2023-01-20T01:06:17.919Z,99223.34
2023-01-20T01:10:22.185Z,99222.47
2023-01-20T01:14:25.451Z,99224.16
2023-01-20T01:18:28.830Z,99233.66
2023-01-20T01:22:33.583Z,99233.78
2023-01-20T01:26:38.313Z,99239.84
2023-01-20T01:30:41.737Z,99235.50
2023-01-20T01:34:45.562Z,99227.81
2023-01-20T01:38:57.893Z,99238.09
2023-01-20T01:43:03.842Z,99239.00
2023-01-20T01:47:07.440Z,99233.78
2023-01-20T01:51:12.537Z,99226.88
2023-01-20T01:55:17.908Z,99224.28
2023-01-20T01:59:23.001Z,99221.63
2023-01-20T02:03:29.033Z,99210.44
2023-01-20T02:07:35.393Z,99228.56
2023-01-20T02:11:41.950Z,99222.47
2023-01-20T02:15:52.226Z,99225.97
2023-01-20T02:20:24.671Z,99228.56
2023-01-20T02:25:15.654Z,99238.97
2023-01-20T02:29:44.371Z,99256.16
2023-01-20T02:33:56.346Z,99250.19
2023-01-20T02:38:12.528Z,99243.25
2023-01-20T02:42:20.463Z,99243.31
2023-01-20T02:46:33.495Z,99235.50
2023-01-20T02:50:44.833Z,99233.78
2023-01-20T02:54:51.821Z,99242.41
2023-01-20T02:58:59.699Z,99256.25
2023-01-20T03:03:08.813Z,99254.59
2023-01-20T03:07:15.537Z,99265.94
2023-01-20T03:11:20.171Z,99266.06
2023-01-20T03:15:26.692Z,99273.84
2023-01-20T03:19:30.163Z,99282.53
2023-01-20T03:23:37.026Z,99284.19
2023-01-20T03:27:40.162Z,99296.22
2023-01-20T03:31:47.189Z,99295.41
2023-01-20T03:35:51.195Z,99303.16
2023-01-20T03:39:56.625Z,99303.13
2023-01-20T03:44:11.064Z,99304.84
2023-01-20T03:48:20.359Z,99304.91
2023-01-20T03:52:46.943Z,99313.53
2023-01-20T03:57:04.294Z,99322.13
2023-01-20T04:01:18.167Z,99324.78
2023-01-20T04:05:23.610Z,99324.91
2023-01-20T04:09:30.566Z,99330.03
2023-01-20T04:13:36.098Z,99330.09
2023-01-20T04:17:39.428Z,99340.41
2023-01-20T04:21:46.588Z,99348.31
2023-01-20T04:25:49.464Z,99355.25
2023-01-20T04:29:54.113Z,99368.19
2023-01-20T04:33:59.453Z,99377.69
2023-01-20T04:38:02.681Z,99373.38
2023-01-20T04:42:06.035Z,99391.56
2023-01-20T04:46:12.342Z,99397.63
2023-01-20T04:50:16.704Z,99405.44
2023-01-20T04:54:19.424Z,99409.00
2023-01-20T04:58:22.399Z,99406.41
2023-01-20T05:02:26.729Z,99402.06
2023-01-20T05:06:30.033Z,99415.97
2023-01-20T05:10:33.810Z,99418.47
2023-01-20T05:14:37.587Z,99422.78
2023-01-20T05:18:42.404Z,99433.13
2023-01-20T05:22:45.519Z,99438.34
2023-01-20T05:26:48.723Z,99435.75
2023-01-20T05:30:52.845Z,99443.53
2023-01-20T05:34:57.536Z,99456.63
2023-01-20T05:39:00.793Z,99455.84
2023-01-20T05:43:04.167Z,99463.56
2023-01-20T05:47:07.338Z,99468.78
2023-01-20T05:51:14.365Z,99473.97
2023-01-20T05:55:22.303Z,99485.31
2023-01-20T05:59:25.752Z,99493.84
2023-01-20T06:03:44.631Z,99505.94
2023-01-20T06:07:49.953Z,99517.09
2023-01-20T06:11:53.216Z,99530.06
2023-01-20T06:15:57.164Z,99538.69
2023-01-20T06:20:00.605Z,99543.03
2023-01-20T06:24:05.539Z,99547.41
2023-01-20T06:28:08.666Z,99548.22
2023-01-20T06:32:11.540Z,99549.09
2023-01-20T06:36:17.229Z,99551.63
2023-01-20T06:40:21.813Z,99557.63
2023-01-20T06:44:24.266Z,99565.25
2023-01-20T06:48:27.426Z,99578.28
2023-01-20T06:52:30.421Z,99567.91
2023-01-20T06:56:34.959Z,99572.19
2023-01-20T07:00:38.208Z,99584.25
2023-01-20T07:04:42.938Z,99593.78
2023-01-20T07:08:46.462Z,99604.16
2023-01-20T07:12:50.741Z,99616.16
2023-01-20T07:16:53.878Z,99601.31
2023-01-20T07:20:57.524Z,99616.81
2023-01-20T07:25:00.602Z,99620.91
2023-01-20T07:29:04.617Z,99614.69
2023-01-20T07:33:07.659Z,99630.19
2023-01-20T07:37:11.041Z,99627.50
2023-01-20T07:41:16.570Z,99626.59
2023-01-20T07:45:21.192Z,99622.22
2023-01-20T07:49:24.557Z,99623.06
2023-01-20T07:53:27.891Z,99631.69
2023-01-20T07:57:31.156Z,99624.75
2023-01-20T08:01:35.603Z,99634.25
2023-01-20T08:05:38.721Z,99631.44
2023-01-20T08:09:42.116Z,99636.47
2023-01-20T08:13:45.737Z,99638.97
2023-01-20T08:17:55.138Z,99641.56
2023-01-20T08:22:01.559Z,99640.41
2023-01-20T08:26:08.894Z,99627.22
2023-01-20T08:30:16.517Z,99638.25
2023-01-20T08:34:22.034Z,99642.38
2023-01-20T08:38:27.981Z,99653.50
2023-01-20T08:42:31.774Z,99653.44
2023-01-20T08:46:35.284Z,99656.88
2023-01-20T08:50:40.206Z,99661.25
2023-01-20T08:54:43.916Z,99658.91
2023-01-20T08:58:46.859Z,99659.00
2023-01-20T09:02:50.113Z,99650.53
2023-01-20T09:06:55.712Z,99661.81
2023-01-20T09:11:04.215Z,99662.78
2023-01-20T09:15:08.395Z,99674.78
2023-01-20T09:19:11.658Z,99678.16
2023-01-20T09:23:15.654Z,99676.56
2023-01-20T09:27:20.395Z,99685.84
2023-01-20T09:31:24.162Z,99692.66
2023-01-20T09:35:28.366Z,99691.69
2023-01-20T09:39:50.082Z,99697.66
2023-01-20T09:44:02.378Z,99707.03
2023-01-20T09:48:27.937Z,99703.25
2023-01-20T09:52:52.701Z,99702.72
2023-01-20T09:57:01.954Z,99706.22
2023-01-20T10:01:14.301Z,99699.91
2023-01-20T10:05:22.604Z,99696.50
2023-01-20T10:09:35.959Z,99695.03
2023-01-20T10:13:47.523Z,99687.13
2023-01-20T10:17:58.467Z,99696.59
2023-01-20T10:22:11.495Z,99690.28
2023-01-20T10:26:19.107Z,99703.19
2023-01-20T10:30:27.265Z,99707.19
2023-01-20T10:34:35.878Z,99714.69
2023-01-20T10:38:49.372Z,99717.25
2023-01-20T10:42:57.580Z,99723.19
2023-01-20T10:47:17.693Z,99721.59
2023-01-20T10:51:28.566Z,99722.53
2023-01-20T10:55:44.131Z,99724.47
2023-01-20T10:59:52.671Z,99724.59
2023-01-20T11:03:57.756Z,99726.50
2023-01-20T11:08:02.254Z,99730.72
2023-01-20T11:12:13.880Z,99722.72
2023-01-20T11:16:23.278Z,99712.63
2023-01-20T11:20:28.673Z,99720.66
2023-01-20T11:24:44.645Z,99725.06
2023-01-20T11:28:52.707Z,99734.19
2023-01-20T11:33:19.149Z,99746.22
2023-01-20T11:37:26.898Z,99741.97
2023-01-20T11:41:32.302Z,99751.66
2023-01-20T11:45:38.674Z,99755.97
2023-01-20T11:49:42.497Z,99768.19
2023-01-20T11:53:47.168Z,99756.75
2023-01-20T11:57:54.580Z,99761.81
2023-01-20T12:02:02.227Z,99756.66
2023-01-20T12:06:11.766Z,99757.47
2023-01-20T12:10:21.718Z,99759.31
2023-01-20T12:14:30.024Z,99760.38
2023-01-20T12:18:38.665Z,99764.84
2023-01-20T12:22:55.315Z,99773.34
2023-01-20T12:27:02.352Z,99775.72
2023-01-20T12:31:07.707Z,99775.41
2023-01-20T12:35:15.693Z,99772.28
2023-01-20T12:39:42.139Z,99766.50
2023-01-20T12:43:58.338Z,99766.13
2023-01-20T12:48:12.134Z,99764.38
2023-01-20T12:52:35.419Z,99766.84
2023-01-20T12:56:45.576Z,99768.56
2023-01-20T13:01:09.503Z,99772.34
2023-01-20T13:05:30.634Z,99765.78
2023-01-20T13:09:51.699Z,99758.34
2023-01-20T13:14:06.699Z,99763.13
2023-01-20T13:18:36.925Z,99771.09
2023-01-20T13:22:40.159Z,99781.63
2023-01-20T13:26:43.760Z,99774.88
2023-01-20T13:30:51.296Z,99778.44
2023-01-20T13:34:55.970Z,99773.44
2023-01-20T13:39:40.933Z,99776.06
2023-01-20T13:43:54.557Z,99780.28
2023-01-20T13:48:03.593Z,99777.81
2023-01-20T13:52:07.915Z,99782.16
2023-01-20T13:56:27.304Z,99772.75
2023-01-20T14:00:30.685Z,99778.84
2023-01-20T14:04:34.447Z,99781.63
2023-01-20T14:08:42.990Z,99798.19
2023-01-20T14:12:46.447Z,99801.00
2023-01-20T14:16:49.927Z,99812.44
2023-01-20T14:21:05.123Z,99818.72
2023-01-20T14:25:23.300Z,99818.31
2023-01-20T14:29:29.747Z,99823.97
2023-01-20T14:33:32.710Z,99818.16
2023-01-20T14:37:38.846Z,99822.94
2023-01-20T14:41:52.705Z,99830.25
2023-01-20T14:45:55.610Z,99836.44
2023-01-20T14:49:58.658Z,99838.03
2023-01-20T14:54:30.588Z,99853.50
2023-01-20T14:58:36.762Z,99866.41
2023-01-20T15:02:41.201Z,99863.69
2023-01-20T15:06:45.040Z,99869.66
2023-01-20T15:10:49.019Z,99862.75
2023-01-20T15:15:08.100Z,99859.34
2023-01-20T15:19:46.412Z,99872.38
2023-01-20T15:23:52.770Z,99883.56
2023-01-20T15:27:56.932Z,99877.56
2023-01-20T15:32:06.044Z,99887.06
2023-01-20T15:36:22.324Z,99897.31
2023-01-20T15:40:27.089Z,99895.72
2023-01-20T15:44:30.218Z,99893.91
2023-01-20T15:48:34.797Z,99901.75
2023-01-20T15:52:38.269Z,99904.50
2023-01-20T15:56:43.373Z,99894.13
2023-01-20T16:00:46.594Z,99896.75
2023-01-20T16:04:55.708Z,99891.63
2023-01-20T16:09:01.777Z,99888.19
2023-01-20T16:13:07.476Z,99889.03
2023-01-20T16:17:15.640Z,99893.50
2023-01-20T16:21:21.240Z,99896.16
2023-01-20T16:25:25.027Z,99905.63
2023-01-20T16:29:28.158Z,99909.16
2023-01-20T16:33:31.194Z,99903.91
2023-01-20T16:37:36.424Z,99905.63
2023-01-20T16:41:39.533Z,99905.72
2023-01-20T16:45:42.428Z,99910.03
2023-01-20T16:49:45.638Z,99913.41
2023-01-20T16:53:50.707Z,99929.84
2023-01-20T16:57:53.788Z,99922.00
2023-01-20T17:01:56.826Z,99922.00
2023-01-20T17:06:00.150Z,99925.50
2023-01-20T17:10:04.878Z,99941.91
2023-01-20T17:14:09.900Z,99944.56
2023-01-20T17:18:13.346Z,99950.44
2023-01-20T17:22:18.299Z,99954.75
2023-01-20T17:26:23.540Z,99959.03
2023-01-20T17:30:27.017Z,99953.72
2023-01-20T17:34:30.695Z,99958.22
2023-01-20T17:38:35.936Z,99966.16
2023-01-20T17:42:40.554Z,99969.72
2023-01-20T17:46:43.711Z,99979.34
2023-01-20T17:50:47.065Z,99981.16
2023-01-20T17:54:50.332Z,99991.56
2023-01-20T17:58:55.553Z,99989.84
2023-01-20T18:02:59.105Z,99992.56
2023-01-20T18:07:03.966Z,99986.56
2023-01-20T18:11:08.013Z,99977.16
2023-01-20T18:15:12.667Z,99986.69
2023-01-20T18:19:16.279Z,99984.19
2023-01-20T18:23:19.566Z,99990.34
2023-01-20T18:27:22.880Z,99986.91
2023-01-20T18:31:28.959Z,99989.66
2023-01-20T18:35:32.429Z,99993.97
2023-01-20T18:39:36.967Z,100002.69
2023-01-20T18:43:40.708Z,100005.34
2023-01-20T18:47:44.896Z,100007.94
2023-01-20T18:51:48.342Z,100005.31
2023-01-20T18:55:51.700Z,100001.97
2023-01-20T18:59:54.533Z,100008.84
2023-01-20T19:03:59.417Z,100004.47
2023-01-20T19:08:05.442Z,100011.31
2023-01-20T19:12:09.090Z,100008.72
2023-01-20T19:16:13.339Z,100017.28
2023-01-20T19:20:18.850Z,100014.66
2023-01-20T19:24:22.943Z,100002.47
2023-01-20T19:28:26.563Z,100009.38
2023-01-20T19:32:29.498Z,100005.06
2023-01-20T19:36:34.908Z,100019.75
2023-01-20T19:40:39.904Z,100007.69
2023-01-20T19:44:46.464Z,100003.38
2023-01-20T19:48:49.813Z,100005.13
2023-01-20T19:52:56.017Z,100004.16
2023-01-20T19:56:59.437Z,99996.31
2023-01-20T20:01:08.966Z,99991.97
2023-01-20T20:05:11.908Z,99987.63
2023-01-20T20:09:18.366Z,99994.47
2023-01-20T20:13:22.821Z,99977.16
2023-01-20T20:17:27.481Z,99979.78
2023-01-20T20:21:31.656Z,99978.97
2023-01-20T20:25:40.585Z,99974.66
2023-01-20T20:29:43.662Z,99982.38
2023-01-20T20:33:47.619Z,99970.25
2023-01-20T20:37:50.488Z,99970.09
2023-01-20T20:41:56.701Z,99975.22
2023-01-20T20:46:01.965Z,99965.72
2023-01-20T20:50:05.647Z,99962.31
2023-01-20T20:54:09.360Z,99963.84
2023-01-20T20:58:14.472Z,99955.31
2023-01-20T21:02:18.202Z,99963.94
2023-01-20T21:06:22.838Z,99970.81
2023-01-20T21:10:25.775Z,99966.47
2023-01-20T21:14:30.545Z,99964.81
2023-01-20T21:18:33.602Z,99970.00
2023-01-20T21:22:36.848Z,99962.19
2023-01-20T21:26:39.763Z,99961.19
2023-01-20T21:30:44.427Z,99949.03
2023-01-20T21:35:01.283Z,99947.41
2023-01-20T21:39:05.613Z,99952.59
2023-01-20T21:43:22.829Z,99936.91
2023-01-20T21:47:27.438Z,99951.63
2023-01-20T21:51:47.690Z,99943.84
2023-01-20T21:55:50.201Z,99938.72
2023-01-20T21:59:53.834Z,99953.44
2023-01-20T22:03:59.337Z,99946.53
2023-01-20T22:08:02.493Z,99941.25
2023-01-20T22:12:06.201Z,99935.47
2023-01-20T22:16:09.879Z,99942.38
2023-01-20T22:20:15.410Z,99930.28
2023-01-20T22:24:19.321Z,99927.72
2023-01-20T22:28:24.626Z,99925.16
2023-01-20T22:32:29.050Z,99921.63
2023-01-20T22:36:37.188Z,99909.63
2023-01-20T22:40:40.490Z,99891.41
2023-01-20T22:44:45.248Z,99891.31
2023-01-20T22:48:50.787Z,99872.44
2023-01-20T22:52:56.022Z,99885.38
2023-01-20T22:56:59.638Z,99874.13
2023-01-20T23:01:03.242Z,99874.28
2023-01-20T23:05:06.401Z,99868.00
2023-01-20T23:09:14.580Z,99869.88
2023-01-20T23:13:19.680Z,99871.53
2023-01-20T23:17:22.570Z,99885.44
2023-01-20T23:21:26.283Z,99877.78
2023-01-20T23:25:30.893Z,99886.41
2023-01-20T23:29:34.773Z,99887.28
2023-01-20T23:33:38.293Z,99879.63
2023-01-20T23:37:41.339Z,99867.31
2023-01-20T23:41:46.442Z,99862.97
2023-01-20T23:45:49.556Z,99871.69
2023-01-20T23:49:53.359Z,99857.88
2023-01-20T23:53:57.081Z,99864.72
2023-01-20T23:58:01.472Z,99877.91
